createdAt,value
2023-02-23T00:02:07.422Z,13.50
2023-02-23T00:04:35.339Z,10.40
2023-02-23T00:07:01.899Z,9.50
2023-02-23T00:09:35.221Z,10.63
2023-02-23T00:12:07.605Z,10.27
2023-02-23T00:14:35.055Z,12.13
2023-02-23T00:17:01.795Z,11.63
2023-02-23T00:19:28.381Z,9.57
2023-02-23T00:21:54.886Z,10.37
2023-02-23T00:24:22.062Z,10.30
2023-02-23T00:26:51.143Z,11.60
2023-02-23T00:29:20.713Z,13.50
2023-02-23T00:31:48.642Z,8.93
2023-02-23T00:34:20.882Z,12.47
2023-02-23T00:36:50.714Z,12.33
2023-02-23T00:39:29.421Z,8.93
2023-02-23T00:42:00.127Z,10.00
2023-02-23T00:44:26.619Z,10.53
2023-02-23T00:46:53.224Z,19.00
2023-02-23T00:49:21.888Z,10.83
2023-02-23T00:51:48.473Z,11.00
2023-02-23T00:54:16.734Z,11.33
2023-02-23T00:56:43.462Z,9.97
2023-02-23T00:59:10.386Z,8.67
2023-02-23T01:01:38.495Z,11.20
2023-02-23T01:04:06.220Z,14.40
2023-02-23T01:06:32.881Z,12.00
2023-02-23T01:08:59.353Z,11.47
2023-02-23T01:11:28.032Z,10.37
2023-02-23T01:13:57.058Z,10.20
2023-02-23T01:16:28.639Z,9.93
2023-02-23T01:18:58.324Z,9.63
2023-02-23T01:21:29.897Z,10.87
2023-02-23T01:23:57.258Z,10.80
2023-02-23T01:26:25.874Z,9.30
2023-02-23T01:28:54.843Z,11.90
2023-02-23T01:31:23.521Z,9.73
2023-02-23T01:33:58.037Z,10.43
2023-02-23T01:36:31.263Z,11.30
2023-02-23T01:39:00.016Z,10.70
2023-02-23T01:41:28.708Z,13.90
2023-02-23T01:44:04.124Z,12.77
2023-02-23T01:46:35.235Z,13.00
2023-02-23T01:49:03.836Z,10.60
2023-02-23T01:51:32.849Z,11.47
2023-02-23T01:54:07.321Z,10.63
2023-02-23T01:56:37.211Z,11.90
2023-02-23T01:59:07.014Z,13.83
2023-02-23T02:01:33.631Z,15.13
2023-02-23T02:04:02.489Z,11.60
2023-02-23T02:06:30.049Z,13.50
2023-02-23T02:09:06.282Z,12.87
2023-02-23T02:11:36.690Z,10.23
2023-02-23T02:14:13.353Z,8.57
2023-02-23T02:17:14.912Z,12.40
2023-02-23T02:20:06.456Z,11.60
2023-02-23T02:22:51.030Z,11.20
2023-02-23T02:25:42.247Z,11.03
2023-02-23T02:28:30.307Z,14.07
2023-02-23T02:31:24.062Z,14.73
2023-02-23T02:34:00.371Z,15.73
2023-02-23T02:36:58.077Z,13.20
2023-02-23T02:39:53.554Z,13.07
2023-02-23T02:42:31.650Z,11.03
2023-02-23T02:45:07.787Z,14.27
2023-02-23T02:47:39.422Z,13.93
2023-02-23T02:50:14.886Z,14.40
2023-02-23T02:52:47.560Z,17.07
2023-02-23T02:55:26.453Z,17.00
2023-02-23T02:57:57.334Z,14.27
2023-02-23T03:00:51.120Z,11.43
2023-02-23T03:03:54.908Z,15.47
2023-02-23T03:07:02.291Z,14.73
2023-02-23T03:10:10.096Z,12.53
2023-02-23T03:13:04.490Z,13.40
2023-02-23T03:16:05.591Z,13.60
2023-02-23T03:19:06.960Z,14.00
2023-02-23T03:22:16.030Z,12.13
2023-02-23T03:25:10.987Z,12.57
2023-02-23T03:28:06.356Z,15.10
2023-02-23T03:31:01.942Z,13.43
2023-02-23T03:34:04.890Z,18.97
2023-02-23T03:36:52.271Z,14.77
2023-02-23T03:39:56.829Z,13.07
2023-02-23T03:42:46.357Z,14.63
2023-02-23T03:45:35.485Z,14.53
2023-02-23T03:48:23.370Z,14.43
2023-02-23T03:51:12.095Z,18.77
2023-02-23T03:54:25.577Z,16.90
2023-02-23T03:57:11.825Z,14.83
2023-02-23T04:00:01.407Z,15.03
2023-02-23T04:02:46.600Z,14.13
2023-02-23T04:05:35.947Z,16.77
2023-02-23T04:08:23.658Z,15.53
2023-02-23T04:11:19.329Z,14.27
2023-02-23T04:13:49.182Z,12.60
2023-02-23T04:16:15.821Z,11.93
2023-02-23T04:18:42.846Z,12.70
2023-02-23T04:21:09.422Z,16.53
2023-02-23T04:23:37.525Z,16.10
2023-02-23T04:26:05.116Z,16.40
2023-02-23T04:28:31.599Z,14.60
2023-02-23T04:30:58.306Z,15.53
2023-02-23T04:33:25.467Z,14.77
2023-02-23T04:35:55.021Z,11.43
2023-02-23T04:38:22.402Z,17.73
2023-02-23T04:40:49.050Z,17.63
2023-02-23T04:43:15.749Z,13.60
2023-02-23T04:45:42.383Z,17.07
2023-02-23T04:48:09.012Z,13.00
2023-02-23T04:50:35.582Z,15.60
2023-02-23T04:53:03.920Z,13.90
2023-02-23T04:55:30.359Z,11.60
2023-02-23T04:58:00.715Z,12.30
2023-02-23T05:00:29.360Z,13.53
2023-02-23T05:02:57.310Z,14.17
2023-02-23T05:05:23.857Z,17.37
2023-02-23T05:07:50.675Z,14.30
2023-02-23T05:10:17.184Z,20.03
2023-02-23T05:12:43.756Z,14.27
2023-02-23T05:15:11.110Z,15.27
2023-02-23T05:17:39.415Z,16.43
2023-02-23T05:20:06.374Z,15.03
2023-02-23T05:22:33.995Z,17.97
2023-02-23T05:25:01.509Z,18.23
2023-02-23T05:27:28.059Z,15.93
2023-02-23T05:29:54.543Z,15.53
2023-02-23T05:32:21.195Z,13.43
2023-02-23T05:34:47.885Z,16.03
2023-02-23T05:37:14.497Z,12.80
2023-02-23T05:39:41.082Z,12.03
2023-02-23T05:42:07.555Z,18.90
2023-02-23T05:44:34.154Z,15.70
2023-02-23T05:47:00.969Z,12.63
2023-02-23T05:49:27.465Z,18.40
2023-02-23T05:51:53.958Z,14.13
2023-02-23T05:54:20.430Z,18.00
2023-02-23T05:56:47.393Z,13.43
2023-02-23T05:59:14.306Z,15.90
2023-02-23T06:01:41.550Z,16.20
2023-02-23T06:04:08.176Z,13.47
2023-02-23T06:06:35.261Z,14.73
2023-02-23T06:09:04.472Z,15.97
2023-02-23T06:11:31.130Z,14.43
2023-02-23T06:13:59.441Z,13.13
2023-02-23T06:16:27.324Z,16.43
2023-02-23T06:18:53.996Z,13.53
2023-02-23T06:21:21.366Z,12.30
2023-02-23T06:23:47.931Z,15.83
2023-02-23T06:26:14.448Z,12.97
2023-02-23T06:28:41.041Z,13.90
2023-02-23T06:31:07.680Z,14.00
2023-02-23T06:33:34.645Z,15.77
2023-02-23T06:36:01.262Z,16.77
2023-02-23T06:38:28.003Z,14.37
2023-02-23T06:40:54.531Z,15.90
2023-02-23T06:43:23.174Z,13.03
2023-02-23T06:45:50.172Z,16.10
2023-02-23T06:48:17.548Z,17.13
2023-02-23T06:50:44.247Z,13.03
2023-02-23T06:53:10.772Z,12.93
2023-02-23T06:55:37.301Z,14.57
2023-02-23T06:58:04.963Z,11.93
2023-02-23T07:00:31.488Z,14.50
2023-02-23T07:02:59.991Z,15.87
2023-02-23T07:05:26.852Z,17.30
2023-02-23T07:07:53.323Z,15.53
2023-02-23T07:10:19.855Z,15.73
2023-02-23T07:12:46.814Z,20.97
2023-02-23T07:15:17.805Z,14.73
2023-02-23T07:17:45.078Z,15.67
2023-02-23T07:20:12.949Z,13.30
2023-02-23T07:22:40.077Z,16.83
2023-02-23T07:25:07.287Z,17.37
2023-02-23T07:27:33.843Z,14.53
2023-02-23T07:30:00.461Z,15.90
2023-02-23T07:32:27.123Z,17.20
2023-02-23T07:34:54.049Z,19.13
2023-02-23T07:37:21.466Z,12.87
2023-02-23T07:39:48.091Z,13.47
2023-02-23T07:42:14.567Z,11.20
2023-02-23T07:44:41.073Z,20.63
2023-02-23T07:47:07.569Z,16.70
2023-02-23T07:49:34.262Z,14.07
2023-02-23T07:52:00.778Z,14.10
2023-02-23T07:54:27.400Z,13.73
2023-02-23T07:56:53.945Z,19.80
2023-02-23T07:59:20.680Z,13.60
2023-02-23T08:01:47.282Z,13.53
2023-02-23T08:04:14.131Z,11.67
2023-02-23T08:06:40.738Z,11.10
2023-02-23T08:09:07.544Z,15.73
2023-02-23T08:11:34.326Z,15.00
2023-02-23T08:14:01.045Z,14.73
2023-02-23T08:16:29.153Z,12.67
2023-02-23T08:18:59.758Z,13.40
2023-02-23T08:21:29.894Z,17.03
2023-02-23T08:23:59.062Z,13.63
2023-02-23T08:26:26.197Z,17.13
2023-02-23T08:28:54.343Z,13.73
2023-02-23T08:31:23.933Z,14.37
2023-02-23T08:33:52.378Z,14.37
2023-02-23T08:36:19.044Z,13.47
2023-02-23T08:38:45.859Z,12.20
2023-02-23T08:41:12.604Z,11.33
2023-02-23T08:43:39.346Z,13.77
2023-02-23T08:46:07.003Z,17.33
2023-02-23T08:48:34.149Z,12.17
2023-02-23T08:51:01.015Z,15.73
2023-02-23T08:53:29.835Z,12.53
2023-02-23T08:56:00.755Z,13.27
2023-02-23T08:58:30.488Z,11.23
2023-02-23T09:00:58.499Z,13.13
2023-02-23T09:03:26.384Z,15.60
2023-02-23T09:05:53.393Z,12.67
2023-02-23T09:08:20.815Z,12.33
2023-02-23T09:10:47.572Z,13.00
2023-02-23T09:13:15.441Z,16.40
2023-02-23T09:15:42.894Z,13.77
2023-02-23T09:18:17.471Z,12.57
2023-02-23T09:20:45.273Z,18.90
2023-02-23T09:23:12.614Z,13.17
2023-02-23T09:25:45.440Z,15.30
2023-02-23T09:28:13.729Z,18.30
2023-02-23T09:30:42.048Z,15.67
2023-02-23T09:33:08.957Z,17.30
2023-02-23T09:35:36.377Z,14.67
2023-02-23T09:38:04.909Z,16.17
2023-02-23T09:40:42.948Z,17.17
2023-02-23T09:43:21.310Z,10.97
2023-02-23T09:45:48.921Z,16.43
2023-02-23T09:48:23.674Z,13.70
2023-02-23T09:50:52.390Z,11.70
2023-02-23T09:53:21.816Z,13.97
2023-02-23T09:55:48.750Z,13.53
2023-02-23T09:58:23.689Z,17.73
2023-02-23T10:01:05.173Z,19.50
2023-02-23T10:03:34.417Z,13.53
2023-02-23T10:06:06.358Z,15.47
2023-02-23T10:09:04.029Z,14.97
2023-02-23T10:11:41.906Z,16.30
2023-02-23T10:14:26.917Z,15.00
2023-02-23T10:16:56.581Z,16.13
2023-02-23T10:19:29.905Z,15.40
2023-02-23T10:22:03.537Z,16.30
2023-02-23T10:24:35.449Z,17.00
2023-02-23T10:27:12.579Z,13.63
2023-02-23T10:30:01.525Z,16.20
2023-02-23T10:33:04.921Z,19.13
2023-02-23T10:35:32.392Z,15.80
2023-02-23T10:38:00.785Z,14.70
2023-02-23T10:40:29.800Z,16.60
2023-02-23T10:42:57.909Z,14.13
2023-02-23T10:45:26.732Z,18.00
2023-02-23T10:48:06.400Z,15.87
2023-02-23T10:50:33.618Z,14.97
2023-02-23T10:53:18.640Z,23.33
2023-02-23T10:55:46.367Z,22.57
2023-02-23T10:58:18.358Z,18.17
2023-02-23T11:00:55.668Z,17.17
2023-02-23T11:03:57.536Z,17.57
2023-02-23T11:06:27.916Z,12.80
2023-02-23T11:08:56.198Z,16.33
2023-02-23T11:11:26.366Z,17.13
2023-02-23T11:13:52.915Z,20.50
2023-02-23T11:16:23.943Z,17.50
2023-02-23T11:19:19.772Z,16.10
2023-02-23T11:21:50.793Z,18.60
2023-02-23T11:24:30.871Z,15.33
2023-02-23T11:27:00.343Z,18.27
2023-02-23T11:29:35.434Z,14.63
2023-02-23T11:32:15.226Z,17.40
2023-02-23T11:34:43.421Z,14.70
2023-02-23T11:37:23.035Z,16.20
2023-02-23T11:39:58.414Z,19.80
2023-02-23T11:42:33.488Z,17.38
2023-02-23T11:45:16.232Z,20.30
2023-02-23T11:47:49.722Z,14.20
2023-02-23T11:50:29.397Z,13.43
2023-02-23T11:52:58.547Z,16.90
2023-02-23T11:55:25.730Z,15.77
2023-02-23T11:57:53.281Z,20.97
2023-02-23T12:00:27.355Z,16.00
2023-02-23T12:03:01.048Z,17.83
2023-02-23T12:05:34.040Z,14.30
2023-02-23T12:08:07.164Z,21.50
2023-02-23T12:10:46.361Z,16.73
2023-02-23T12:13:30.565Z,14.97
2023-02-23T12:16:20.468Z,14.73
2023-02-23T12:19:20.537Z,13.27
2023-02-23T12:22:03.175Z,14.40
2023-02-23T12:24:57.606Z,17.40
2023-02-23T12:27:34.481Z,19.53
2023-02-23T12:30:25.925Z,14.47
2023-02-23T12:32:58.193Z,15.73
2023-02-23T12:35:43.652Z,12.83
2023-02-23T12:38:44.438Z,16.33
2023-02-23T12:41:16.329Z,12.50
2023-02-23T12:44:15.388Z,18.40
2023-02-23T12:46:51.151Z,16.60
2023-02-23T12:49:41.826Z,19.23
2023-02-23T12:52:25.945Z,17.40
2023-02-23T12:54:52.572Z,15.77
2023-02-23T12:57:49.814Z,17.17
2023-02-23T13:00:30.992Z,16.93
2023-02-23T13:03:22.227Z,14.67
2023-02-23T13:06:01.733Z,15.77
2023-02-23T13:09:14.099Z,15.10
2023-02-23T13:12:24.750Z,14.83
2023-02-23T13:15:19.683Z,18.20
2023-02-23T13:18:13.531Z,14.87
2023-02-23T13:20:56.289Z,18.47
2023-02-23T13:23:28.505Z,13.80
2023-02-23T13:25:58.110Z,13.63
2023-02-23T13:28:48.429Z,14.63
2023-02-23T13:31:25.058Z,13.57
2023-02-23T13:33:53.656Z,14.53
2023-02-23T13:36:21.145Z,17.03
2023-02-23T13:39:18.505Z,15.17
2023-02-23T13:42:28.050Z,16.20
2023-02-23T13:45:06.436Z,18.20
2023-02-23T13:47:50.690Z,13.50
2023-02-23T13:50:37.915Z,15.13
2023-02-23T13:53:07.711Z,11.73
2023-02-23T13:55:49.755Z,14.47
2023-02-23T13:58:19.391Z,15.57
2023-02-23T14:00:54.039Z,11.60
2023-02-23T14:03:24.432Z,17.47
2023-02-23T14:05:57.831Z,13.57
2023-02-23T14:08:32.877Z,17.37
2023-02-23T14:10:59.525Z,13.57
2023-02-23T14:13:45.351Z,14.50
2023-02-23T14:16:18.688Z,13.10
2023-02-23T14:18:57.462Z,21.70
2023-02-23T14:21:29.892Z,18.70
2023-02-23T14:24:14.010Z,15.67
2023-02-23T14:26:45.832Z,14.70
2023-02-23T14:29:14.944Z,14.03
2023-02-23T14:31:57.696Z,16.37
2023-02-23T14:35:02.319Z,16.80
2023-02-23T14:37:32.475Z,22.50
2023-02-23T14:40:12.506Z,15.83
2023-02-23T14:42:40.456Z,15.00
2023-02-23T14:45:28.693Z,15.17
2023-02-23T14:48:05.101Z,14.00
2023-02-23T14:50:34.559Z,18.90
2023-02-23T14:53:02.203Z,13.40
2023-02-23T14:55:31.280Z,19.40
2023-02-23T14:57:58.395Z,20.10
2023-02-23T15:00:32.791Z,19.93
2023-02-23T15:03:12.738Z,18.90
2023-02-23T15:05:48.484Z,15.67
2023-02-23T15:08:21.401Z,19.23
2023-02-23T15:10:53.497Z,18.03
2023-02-23T15:13:29.805Z,21.87
2023-02-23T15:15:58.003Z,30.47
2023-02-23T15:18:30.439Z,17.00
2023-02-23T15:20:57.977Z,14.03
2023-02-23T15:23:25.224Z,13.90
2023-02-23T15:25:52.809Z,17.57
2023-02-23T15:28:29.691Z,18.93
2023-02-23T15:31:00.283Z,20.27
2023-02-23T15:33:30.540Z,14.53
2023-02-23T15:36:06.393Z,14.47
2023-02-23T15:38:43.333Z,21.10
2023-02-23T15:41:21.366Z,13.80
2023-02-23T15:43:48.456Z,16.50
2023-02-23T15:46:24.239Z,23.57
2023-02-23T15:48:52.861Z,22.47
2023-02-23T15:51:24.736Z,19.47
2023-02-23T15:53:51.773Z,13.83
2023-02-23T15:56:29.962Z,23.90
2023-02-23T15:59:02.222Z,19.43
2023-02-23T16:01:30.818Z,21.70
2023-02-23T16:04:28.969Z,18.73
2023-02-23T16:07:07.587Z,21.47
2023-02-23T16:09:38.029Z,31.57
2023-02-23T16:12:11.328Z,17.63
2023-02-23T16:14:46.451Z,16.73
2023-02-23T16:17:35.037Z,21.57
2023-02-23T16:20:18.904Z,20.43
2023-02-23T16:22:46.375Z,16.17
2023-02-23T16:25:15.587Z,18.30
2023-02-23T16:27:43.126Z,22.10
2023-02-23T16:30:23.697Z,19.60
2023-02-23T16:33:23.216Z,16.77
2023-02-23T16:36:10.440Z,17.30
2023-02-23T16:38:39.223Z,20.20
2023-02-23T16:41:12.786Z,20.53
2023-02-23T16:43:39.236Z,25.23
2023-02-23T16:46:06.190Z,19.60
2023-02-23T16:48:33.086Z,17.30
2023-02-23T16:50:59.595Z,20.33
2023-02-23T16:53:26.127Z,21.33
2023-02-23T16:55:54.262Z,21.47
2023-02-23T16:58:24.766Z,25.93
2023-02-23T17:00:52.264Z,21.43
2023-02-23T17:03:24.534Z,20.43
2023-02-23T17:05:51.594Z,28.93
2023-02-23T17:08:18.434Z,22.90
2023-02-23T17:10:48.174Z,20.57
2023-02-23T17:13:19.114Z,25.53
2023-02-23T17:15:53.882Z,23.50
2023-02-23T17:20:59.522Z,24.87
2023-02-23T17:23:28.141Z,21.03
2023-02-23T17:25:56.203Z,22.03
2023-02-23T17:28:23.253Z,37.30
2023-02-23T17:30:49.979Z,23.77
2023-02-23T17:33:17.339Z,22.20
2023-02-23T17:35:44.206Z,28.13
2023-02-23T17:38:11.280Z,27.23
2023-02-23T17:40:38.058Z,31.20
2023-02-23T17:43:07.587Z,22.00
2023-02-23T17:45:34.118Z,23.47
2023-02-23T17:48:00.769Z,26.80
2023-02-23T17:50:28.218Z,24.67
2023-02-23T17:52:55.038Z,31.33
2023-02-23T17:55:22.626Z,26.33
2023-02-23T17:57:49.939Z,27.93
2023-02-23T18:00:18.163Z,30.90
2023-02-23T18:02:45.702Z,28.80
2023-02-23T18:05:13.737Z,27.90
2023-02-23T18:07:40.516Z,27.80
2023-02-23T18:10:07.305Z,33.70
2023-02-23T18:12:34.167Z,30.00
2023-02-23T18:15:00.762Z,29.23
2023-02-23T18:17:27.406Z,32.07
2023-02-23T18:19:54.163Z,33.30
2023-02-23T18:22:20.809Z,28.57
2023-02-23T18:24:47.582Z,27.53
2023-02-23T18:27:14.682Z,31.10
2023-02-23T18:29:41.200Z,26.97
2023-02-23T18:32:08.187Z,30.30
2023-02-23T18:34:35.906Z,31.17
2023-02-23T18:37:03.494Z,30.53
2023-02-23T18:39:31.838Z,26.63
2023-02-23T18:42:00.000Z,28.27
2023-02-23T18:44:27.521Z,32.47
2023-02-23T18:46:55.081Z,31.03
2023-02-23T18:49:24.830Z,31.20
2023-02-23T18:51:51.819Z,26.77
2023-02-23T18:54:19.032Z,33.43
2023-02-23T18:56:47.956Z,34.43
2023-02-23T18:59:15.041Z,28.97
2023-02-23T19:01:45.202Z,31.33
2023-02-23T19:04:13.228Z,30.60
2023-02-23T19:06:42.870Z,31.70
2023-02-23T19:09:12.681Z,34.33
2023-02-23T19:11:41.133Z,31.50
2023-02-23T19:14:10.958Z,33.07
2023-02-23T19:16:38.338Z,37.43
2023-02-23T19:19:06.733Z,35.67
2023-02-23T19:21:33.816Z,32.10
2023-02-23T19:24:02.471Z,36.83
2023-02-23T19:26:30.201Z,31.67
2023-02-23T19:28:57.867Z,36.23
2023-02-23T19:31:26.085Z,32.63
2023-02-23T19:33:55.036Z,38.17
2023-02-23T19:36:23.981Z,33.50
2023-02-23T19:38:50.694Z,38.93
2023-02-23T19:41:21.103Z,36.67
2023-02-23T19:43:47.997Z,30.73
2023-02-23T19:46:17.227Z,40.43
2023-02-23T19:48:48.547Z,37.03
2023-02-23T19:51:15.078Z,34.23
2023-02-23T19:53:41.614Z,33.10
2023-02-23T19:56:12.159Z,35.83
2023-02-23T19:58:39.335Z,34.97
2023-02-23T20:01:17.308Z,39.93
2023-02-23T20:03:45.266Z,40.50
2023-02-23T20:06:13.484Z,41.23
2023-02-23T20:08:41.206Z,37.10
2023-02-23T20:11:08.257Z,37.93
2023-02-23T20:13:35.480Z,34.63
2023-02-23T20:16:13.939Z,37.17
2023-02-23T20:18:41.481Z,38.73
2023-02-23T20:21:13.912Z,35.37
2023-02-23T20:23:41.614Z,38.17
2023-02-23T20:26:11.076Z,41.80
2023-02-23T20:28:38.480Z,36.77
2023-02-23T20:31:14.965Z,43.80
2023-02-23T20:33:42.031Z,42.77
2023-02-23T20:36:09.274Z,42.27
2023-02-23T20:38:36.105Z,42.97
2023-02-23T20:41:04.364Z,40.47
2023-02-23T20:43:31.469Z,47.37
2023-02-23T20:46:00.883Z,43.80
2023-02-23T20:48:28.893Z,45.37
2023-02-23T20:50:57.474Z,42.77
2023-02-23T20:53:25.426Z,45.07
2023-02-23T20:55:53.471Z,43.13
2023-02-23T20:58:25.654Z,46.80
2023-02-23T21:01:07.124Z,40.43
2023-02-23T21:03:35.463Z,41.07
2023-02-23T21:06:02.121Z,48.20
2023-02-23T21:08:31.251Z,45.17
2023-02-23T21:10:57.931Z,42.33
2023-02-23T21:13:26.610Z,47.47
2023-02-23T21:16:01.678Z,47.30
2023-02-23T21:18:28.946Z,43.97
2023-02-23T21:20:57.173Z,47.30
2023-02-23T21:23:24.943Z,47.23
2023-02-23T21:25:53.231Z,46.37
2023-02-23T21:28:20.886Z,51.00
2023-02-23T21:30:48.188Z,43.40
2023-02-23T21:33:15.090Z,52.63
2023-02-23T21:35:41.728Z,49.97
2023-02-23T21:38:08.506Z,50.47
2023-02-23T21:40:35.771Z,44.67
2023-02-23T21:43:06.615Z,54.50
2023-02-23T21:45:33.381Z,51.63
2023-02-23T21:48:00.141Z,54.90
2023-02-23T21:50:27.046Z,49.90
2023-02-23T21:52:55.702Z,53.90
2023-02-23T21:55:22.759Z,52.33
2023-02-23T21:57:50.903Z,46.50
2023-02-23T22:00:19.217Z,49.40
2023-02-23T22:02:46.651Z,49.67
2023-02-23T22:05:14.754Z,47.23
2023-02-23T22:07:42.036Z,49.03
2023-02-23T22:10:09.319Z,61.63
2023-02-23T22:12:35.960Z,57.73
2023-02-23T22:15:07.006Z,53.60
2023-02-23T22:17:34.096Z,52.57
2023-02-23T22:20:01.158Z,53.73
2023-02-23T22:22:28.154Z,52.33
2023-02-23T22:24:54.784Z,60.37
2023-02-23T22:27:22.268Z,52.87
2023-02-23T22:29:48.932Z,58.03
2023-02-23T22:32:17.557Z,56.93
2023-02-23T22:34:44.262Z,55.73
2023-02-23T22:37:11.102Z,58.30
2023-02-23T22:39:41.875Z,58.90
2023-02-23T22:42:12.738Z,59.30
2023-02-23T22:44:39.373Z,53.63
2023-02-23T22:47:06.545Z,61.23
2023-02-23T22:49:34.942Z,60.37
2023-02-23T22:52:01.547Z,56.13
2023-02-23T22:54:28.601Z,58.27
2023-02-23T22:56:55.966Z,55.97
2023-02-23T22:59:22.577Z,56.57
2023-02-23T23:01:50.322Z,56.40
2023-02-23T23:04:17.361Z,59.83
2023-02-23T23:06:44.183Z,55.83
2023-02-23T23:09:12.085Z,61.10
2023-02-23T23:11:44.526Z,56.63
2023-02-23T23:14:12.378Z,60.17
2023-02-23T23:16:48.174Z,60.53
2023-02-23T23:19:17.834Z,58.67
2023-02-23T23:21:46.082Z,59.77
2023-02-23T23:24:16.118Z,59.03
2023-02-23T23:26:44.590Z,59.37
2023-02-23T23:29:13.333Z,52.60
2023-02-23T23:31:45.857Z,58.23
2023-02-23T23:34:13.262Z,60.00
2023-02-23T23:36:46.121Z,60.00
2023-02-23T23:39:16.480Z,61.70
2023-02-23T23:41:46.057Z,55.87
2023-02-23T23:44:13.361Z,66.83
2023-02-23T23:46:45.086Z,56.13
2023-02-23T23:49:16.615Z,59.10
2023-02-23T23:51:45.716Z,62.70
2023-02-23T23:54:14.468Z,57.47
2023-02-23T23:56:41.363Z,63.40
2023-02-23T23:59:11.202Z,57.03
